createdAt,value
2018-07-14T00:01:50.849Z,5.50
2018-07-14T00:04:19.816Z,6.00
2018-07-14T00:06:48.858Z,6.10
2018-07-14T00:09:17.881Z,5.80
2018-07-14T00:11:46.868Z,7.10
2018-07-14T00:14:15.925Z,6.00
2018-07-14T00:16:45.011Z,7.07
2018-07-14T00:19:13.976Z,6.73
2018-07-14T00:21:42.987Z,6.27
2018-07-14T00:24:11.981Z,5.60
2018-07-14T00:26:40.989Z,6.23
2018-07-14T00:29:10.039Z,6.87
2018-07-14T00:31:39.064Z,7.10
2018-07-14T00:34:08.194Z,5.83
2018-07-14T00:36:37.274Z,6.63
2018-07-14T00:39:06.975Z,4.77
2018-07-14T00:41:35.933Z,5.80
2018-07-14T00:44:04.897Z,6.07
2018-07-14T00:46:33.869Z,5.80
2018-07-14T00:49:02.901Z,5.40
2018-07-14T00:51:31.865Z,5.20
2018-07-14T00:54:00.884Z,5.83
2018-07-14T00:56:29.984Z,5.17
2018-07-14T00:58:59.002Z,5.30
2018-07-14T01:01:28.034Z,5.57
2018-07-14T01:03:57.031Z,4.80
2018-07-14T01:06:25.998Z,4.63
2018-07-14T01:08:55.047Z,5.00
2018-07-14T01:11:24.004Z,4.43
2018-07-14T01:13:53.156Z,4.20
2018-07-14T01:16:22.168Z,5.40
2018-07-14T01:18:51.241Z,3.83
2018-07-14T01:21:20.274Z,4.27
2018-07-14T01:23:49.237Z,4.30
2018-07-14T01:26:18.215Z,4.40
2018-07-14T01:28:47.353Z,5.37
2018-07-14T01:31:16.481Z,4.37
2018-07-14T01:33:45.432Z,4.73
2018-07-14T01:36:14.452Z,4.70
2018-07-14T01:38:43.492Z,6.20
2018-07-14T01:41:12.519Z,6.60
2018-07-14T01:43:41.514Z,6.03
2018-07-14T01:46:10.476Z,6.00
2018-07-14T01:48:39.621Z,5.37
2018-07-14T01:51:08.685Z,5.30
2018-07-14T01:53:37.644Z,4.67
2018-07-14T01:56:06.641Z,4.40
2018-07-14T01:58:35.607Z,4.53
2018-07-14T02:01:04.622Z,4.73
2018-07-14T02:03:33.576Z,4.13
2018-07-14T02:06:02.600Z,4.33
2018-07-14T02:08:31.609Z,3.80
2018-07-14T02:11:00.653Z,4.13
2018-07-14T02:13:29.752Z,4.33
2018-07-14T02:15:58.842Z,4.00
2018-07-14T02:18:27.881Z,3.93
2018-07-14T02:20:56.827Z,3.50
2018-07-14T02:23:25.776Z,4.50
2018-07-14T02:25:54.756Z,4.17
2018-07-14T02:28:23.776Z,3.30
2018-07-14T02:30:52.829Z,4.07
2018-07-14T02:33:21.792Z,3.07
2018-07-14T02:35:50.872Z,4.10
2018-07-14T02:38:19.904Z,3.77
2018-07-14T02:40:49.000Z,4.87
2018-07-14T02:43:17.979Z,4.97
2018-07-14T02:45:47.007Z,4.93
2018-07-14T02:48:16.008Z,5.40
2018-07-14T02:50:45.023Z,5.80
2018-07-14T02:53:14.129Z,5.40
2018-07-14T02:55:43.231Z,5.60
2018-07-14T02:58:12.217Z,5.33
2018-07-14T03:00:41.437Z,6.60
2018-07-14T03:03:10.452Z,6.10
2018-07-14T03:05:39.508Z,5.53
2018-07-14T03:08:08.528Z,6.00
2018-07-14T03:10:37.549Z,5.40
2018-07-14T03:13:06.600Z,5.53
2018-07-14T03:15:35.620Z,5.17
2018-07-14T03:18:04.643Z,6.53
2018-07-14T03:20:33.596Z,5.87
2018-07-14T03:23:02.613Z,5.90
2018-07-14T03:25:31.629Z,5.73
2018-07-14T03:28:00.675Z,5.70
2018-07-14T03:30:29.749Z,6.40
2018-07-14T03:32:58.824Z,5.50
2018-07-14T03:35:27.836Z,6.43
2018-07-14T03:37:56.909Z,5.67
2018-07-14T03:40:26.007Z,5.90
2018-07-14T03:42:55.022Z,5.90
2018-07-14T03:45:24.076Z,5.40
2018-07-14T03:47:53.033Z,6.13
2018-07-14T03:50:22.103Z,6.37
2018-07-14T03:52:51.092Z,6.13
2018-07-14T03:55:20.122Z,5.03
2018-07-14T03:57:49.100Z,6.10
2018-07-14T04:00:18.097Z,5.27
2018-07-14T04:02:47.182Z,4.90
2018-07-14T04:05:16.204Z,5.00
2018-07-14T04:07:46.036Z,5.10
2018-07-14T04:10:15.139Z,4.97
2018-07-14T04:12:44.187Z,5.07
2018-07-14T04:15:13.168Z,4.57
2018-07-14T04:17:42.232Z,4.83
2018-07-14T04:20:11.415Z,5.10
2018-07-14T04:22:40.401Z,5.60
2018-07-14T04:25:09.451Z,5.83
2018-07-14T04:27:38.460Z,6.73
2018-07-14T04:30:07.452Z,6.60
2018-07-14T04:32:36.460Z,6.30
2018-07-14T04:35:05.424Z,5.23
2018-07-14T04:37:34.474Z,5.40
2018-07-14T04:40:03.496Z,4.80
2018-07-14T04:42:32.546Z,4.87
2018-07-14T04:45:01.592Z,4.77
2018-07-14T04:47:30.907Z,4.60
2018-07-14T04:49:59.907Z,4.83
2018-07-14T04:52:28.912Z,5.00
2018-07-14T04:54:57.963Z,4.87
2018-07-14T04:57:26.969Z,4.30
2018-07-14T04:59:55.989Z,3.73
2018-07-14T05:02:24.976Z,4.17
2018-07-14T05:04:54.000Z,3.33
2018-07-14T05:07:23.004Z,3.30
2018-07-14T05:09:52.060Z,4.20
2018-07-14T05:12:21.154Z,3.93
2018-07-14T05:14:50.105Z,4.77
2018-07-14T05:17:19.124Z,4.37
2018-07-14T05:19:48.105Z,4.43
2018-07-14T05:22:17.135Z,5.10
2018-07-14T05:24:46.115Z,5.00
2018-07-14T05:27:15.141Z,4.77
2018-07-14T05:29:44.179Z,4.83
2018-07-14T05:32:13.171Z,5.23
2018-07-14T05:34:42.180Z,4.67
2018-07-14T05:37:11.164Z,4.10
2018-07-14T05:39:40.172Z,4.80
2018-07-14T05:42:09.202Z,5.70
2018-07-14T05:44:38.165Z,5.07
2018-07-14T05:47:07.351Z,4.73
2018-07-14T05:49:36.392Z,4.43
2018-07-14T05:52:05.712Z,5.23
2018-07-14T05:54:34.672Z,4.90
2018-07-14T05:57:03.645Z,4.30
2018-07-14T05:59:32.688Z,4.00
2018-07-14T06:02:01.773Z,3.90
2018-07-14T06:04:30.848Z,3.50
2018-07-14T06:06:59.800Z,3.90
2018-07-14T06:09:28.769Z,3.57
2018-07-14T06:11:58.120Z,3.50
2018-07-14T06:14:27.196Z,3.40
2018-07-14T06:16:56.161Z,3.93
2018-07-14T06:19:25.209Z,3.37
2018-07-14T06:21:54.271Z,4.17
2018-07-14T06:24:23.248Z,3.27
2018-07-14T06:26:52.481Z,5.17
2018-07-14T06:29:21.520Z,3.80
2018-07-14T06:31:50.563Z,3.90
2018-07-14T06:34:19.567Z,3.87
2018-07-14T06:36:48.589Z,3.37
2018-07-14T06:39:17.995Z,2.90
2018-07-14T06:41:47.033Z,2.90
2018-07-14T06:44:16.139Z,2.83
2018-07-14T06:46:45.104Z,2.90
2018-07-14T06:49:14.099Z,3.43
2018-07-14T06:51:43.170Z,2.73
2018-07-14T06:54:12.410Z,2.70
2018-07-14T06:56:41.641Z,3.27
2018-07-14T06:59:10.666Z,3.60
2018-07-14T07:01:39.764Z,3.20
2018-07-14T07:04:08.817Z,3.27
2018-07-14T07:06:37.851Z,3.20
2018-07-14T07:09:06.823Z,3.13
2018-07-14T07:11:35.808Z,3.23
2018-07-14T07:14:04.809Z,3.70
2018-07-14T07:16:33.894Z,3.47
2018-07-14T07:19:03.005Z,3.13
2018-07-14T07:21:32.040Z,3.10
2018-07-14T07:24:01.068Z,3.60
2018-07-14T07:26:30.160Z,3.13
2018-07-14T07:28:59.251Z,3.47
2018-07-14T07:31:28.326Z,2.77
2018-07-14T07:33:57.364Z,3.43
2018-07-14T07:36:26.308Z,3.10
2018-07-14T07:38:55.333Z,3.40
2018-07-14T07:41:24.389Z,4.00
2018-07-14T07:43:53.412Z,3.67
2018-07-14T07:46:22.450Z,3.77
2018-07-14T07:48:51.411Z,3.90
2018-07-14T07:51:20.566Z,3.67
2018-07-14T07:53:49.606Z,3.77
2018-07-14T07:56:18.681Z,3.40
2018-07-14T07:58:47.773Z,2.80
2018-07-14T08:01:16.888Z,3.37
2018-07-14T08:03:45.943Z,3.83
2018-07-14T08:06:14.961Z,3.10
2018-07-14T08:08:44.022Z,3.57
2018-07-14T08:11:13.100Z,4.63
2018-07-14T08:13:42.273Z,3.83
2018-07-14T08:16:11.306Z,2.63
2018-07-14T08:18:40.285Z,2.60
2018-07-14T08:21:09.358Z,3.00
2018-07-14T08:23:38.442Z,3.40
2018-07-14T08:26:07.860Z,4.10
2018-07-14T08:28:36.800Z,2.73
2018-07-14T08:31:05.812Z,3.30
2018-07-14T08:33:34.836Z,3.20
2018-07-14T08:36:03.927Z,3.23
2018-07-14T08:38:32.935Z,3.40
2018-07-14T08:41:02.022Z,3.20
2018-07-14T08:43:31.056Z,3.10
2018-07-14T08:46:00.019Z,2.97
2018-07-14T08:48:28.984Z,2.70
2018-07-14T08:50:57.931Z,3.60
2018-07-14T08:53:26.914Z,3.60
2018-07-14T08:55:55.886Z,2.70
2018-07-14T08:58:29.302Z,3.10
2018-07-14T09:00:59.596Z,2.77
2018-07-14T09:03:28.656Z,2.70
2018-07-14T09:05:58.086Z,3.63
2018-07-14T09:08:27.088Z,3.40
2018-07-14T09:10:56.074Z,3.30
2018-07-14T09:13:25.040Z,3.00
2018-07-14T09:15:54.122Z,2.87
2018-07-14T09:18:23.125Z,2.97
2018-07-14T09:20:52.228Z,3.30
2018-07-14T09:23:21.196Z,3.10
2018-07-14T09:25:50.151Z,3.97
2018-07-14T09:28:19.239Z,2.80
2018-07-14T09:30:48.287Z,3.77
2018-07-14T09:33:17.287Z,3.40
2018-07-14T09:35:46.337Z,4.30
2018-07-14T09:38:15.362Z,3.87
2018-07-14T09:40:44.380Z,3.40
2018-07-14T09:43:13.401Z,3.60
2018-07-14T09:45:42.387Z,3.13
2018-07-14T09:48:11.377Z,3.30
2018-07-14T09:50:40.524Z,3.33
2018-07-14T09:53:09.473Z,3.17
2018-07-14T09:55:38.578Z,3.30
2018-07-14T09:58:07.631Z,3.13
2018-07-14T10:00:36.757Z,3.50
2018-07-14T10:03:05.810Z,3.10
2018-07-14T10:05:34.755Z,3.20
2018-07-14T10:08:03.782Z,2.80
2018-07-14T10:10:32.798Z,3.00
2018-07-14T10:13:01.840Z,3.23
2018-07-14T10:15:30.906Z,2.80
2018-07-14T10:17:59.965Z,3.70
2018-07-14T10:20:29.000Z,2.77
2018-07-14T10:22:57.960Z,3.30
2018-07-14T10:25:26.992Z,2.83
2018-07-14T10:27:56.002Z,2.70
2018-07-14T10:30:24.986Z,3.53
2018-07-14T10:32:54.102Z,2.40
2018-07-14T10:35:23.125Z,3.60
2018-07-14T10:37:52.148Z,3.10
2018-07-14T10:40:21.176Z,3.00
2018-07-14T10:42:50.194Z,2.50
2018-07-14T10:45:19.221Z,3.40
2018-07-14T10:47:48.352Z,2.83
2018-07-14T10:50:17.385Z,3.15
2018-07-14T10:52:46.428Z,2.30
2018-07-14T10:55:15.491Z,2.33
2018-07-14T10:57:44.461Z,2.85
2018-07-14T11:00:13.474Z,2.80
2018-07-14T11:02:42.578Z,2.62
2018-07-14T11:05:11.643Z,3.08
2018-07-14T11:07:40.686Z,2.45
2018-07-14T11:10:09.730Z,2.40
2018-07-14T11:12:38.678Z,2.02
2018-07-14T11:15:07.728Z,2.85
2018-07-14T11:17:36.712Z,2.85
2018-07-14T11:20:05.672Z,2.47
2018-07-14T11:22:34.754Z,2.47
2018-07-14T11:25:03.878Z,2.35
2018-07-14T11:27:32.839Z,2.02
2018-07-14T11:30:01.791Z,2.42
2018-07-14T11:32:30.781Z,2.00
2018-07-14T11:34:59.851Z,2.05
2018-07-14T11:37:28.949Z,1.62
2018-07-14T11:39:57.897Z,1.90
2018-07-14T11:42:27.006Z,1.92
2018-07-14T11:44:56.050Z,1.70
2018-07-14T11:47:25.190Z,2.25
2018-07-14T11:49:54.205Z,2.17
2018-07-14T11:52:23.172Z,2.87
2018-07-14T11:54:52.292Z,1.80
2018-07-14T11:57:21.262Z,1.60
2018-07-14T11:59:50.232Z,2.72
2018-07-14T12:02:19.321Z,1.75
2018-07-14T12:04:48.417Z,1.72
2018-07-14T12:07:17.467Z,1.92
2018-07-14T12:09:46.457Z,1.85
2018-07-14T12:12:15.460Z,1.98
2018-07-14T12:14:44.541Z,2.27
2018-07-14T12:17:13.508Z,2.72
2018-07-14T12:19:42.533Z,2.12
2018-07-14T12:22:11.634Z,3.60
2018-07-14T12:24:40.624Z,2.40
2018-07-14T12:27:09.637Z,2.42
2018-07-14T12:29:38.664Z,2.17
2018-07-14T12:32:07.700Z,3.47
2018-07-14T12:34:36.806Z,1.70
2018-07-14T12:37:06.005Z,1.65
2018-07-14T12:39:35.141Z,1.50
2018-07-14T12:42:04.202Z,1.62
2018-07-14T12:44:33.593Z,3.98
2018-07-14T12:47:02.644Z,1.65
2018-07-14T12:49:31.685Z,5.10
2018-07-14T12:52:00.648Z,1.70
2018-07-14T12:54:29.742Z,1.87
2018-07-14T12:56:58.789Z,1.40
2018-07-14T12:59:27.749Z,1.55
2018-07-14T13:01:56.764Z,1.77
2018-07-14T13:04:25.774Z,1.82
2018-07-14T13:06:54.832Z,2.08
2018-07-14T13:09:23.945Z,1.50
2018-07-14T13:11:53.031Z,2.05
2018-07-14T13:14:22.020Z,2.00
2018-07-14T13:16:51.109Z,1.85
2018-07-14T13:19:20.129Z,2.10
2018-07-14T13:21:49.419Z,2.00
2018-07-14T13:24:18.617Z,3.27
2018-07-14T13:26:47.660Z,2.85
2018-07-14T13:29:16.728Z,3.27
2018-07-14T13:31:45.761Z,3.27
2018-07-14T13:34:14.815Z,3.17
2018-07-14T13:36:43.764Z,2.15
2018-07-14T13:39:12.859Z,2.20
2018-07-14T13:41:41.817Z,2.58
2018-07-14T13:44:10.763Z,1.70
2018-07-14T13:46:39.801Z,2.45
2018-07-14T13:49:08.755Z,2.80
2018-07-14T13:51:37.810Z,1.85
2018-07-14T13:54:07.089Z,2.40
2018-07-14T13:56:36.159Z,1.95
2018-07-14T13:59:05.172Z,2.15
2018-07-14T14:01:34.284Z,2.12
2018-07-14T14:04:03.252Z,2.30
2018-07-14T14:06:32.196Z,2.50
2018-07-14T14:09:01.172Z,2.47
2018-07-14T14:11:30.242Z,2.97
2018-07-14T14:13:59.236Z,2.70
2018-07-14T14:16:28.249Z,2.30
2018-07-14T14:18:57.228Z,2.60
2018-07-14T14:21:26.294Z,3.07
2018-07-14T14:23:55.419Z,3.70
2018-07-14T14:26:24.437Z,3.00
2018-07-14T14:28:53.388Z,3.10
2018-07-14T14:31:22.417Z,2.40
2018-07-14T14:33:51.505Z,3.40
2018-07-14T14:36:20.748Z,3.57
2018-07-14T14:38:49.732Z,3.50
2018-07-14T14:41:18.752Z,2.87
2018-07-14T14:43:48.065Z,3.80
2018-07-14T14:46:17.499Z,11.40
2018-07-14T14:48:46.530Z,188.63
2018-07-14T14:51:15.515Z,169.27
2018-07-14T14:53:44.484Z,263.43
2018-07-14T14:56:13.599Z,94.97
2018-07-14T14:58:42.713Z,8.73
2018-07-14T15:01:11.787Z,7.00
2018-07-14T15:03:40.764Z,4.00
2018-07-14T15:06:09.758Z,3.67
2018-07-14T15:08:38.855Z,4.70
2018-07-14T15:11:07.824Z,3.50
2018-07-14T15:13:37.006Z,3.43
2018-07-14T15:16:05.988Z,3.87
2018-07-14T15:18:35.033Z,3.70
2018-07-14T15:21:04.025Z,3.73
2018-07-14T15:23:32.988Z,2.97
2018-07-14T15:26:02.010Z,4.37
2018-07-14T15:28:31.073Z,3.50
2018-07-14T15:31:00.121Z,3.87
2018-07-14T15:33:29.577Z,6.03
2018-07-14T15:35:58.554Z,3.63
2018-07-14T15:38:27.596Z,4.50
2018-07-14T15:40:59.232Z,3.23
2018-07-14T15:43:28.219Z,3.10
2018-07-14T15:45:57.172Z,3.03
2018-07-14T15:48:26.226Z,146.77
2018-07-14T15:50:55.244Z,86.00
2018-07-14T15:53:24.444Z,47.90
2018-07-14T15:55:53.465Z,44.40
2018-07-14T15:58:22.459Z,160.33
2018-07-14T16:00:51.531Z,8.57
2018-07-14T16:03:20.464Z,3.77
2018-07-14T16:05:49.416Z,3.63
2018-07-14T16:08:18.457Z,3.27
2018-07-14T16:10:47.491Z,4.10
2018-07-14T16:13:16.443Z,3.40
2018-07-14T16:15:45.571Z,3.73
2018-07-14T16:18:20.844Z,4.23
2018-07-14T16:20:49.925Z,3.90
2018-07-14T16:23:19.043Z,6.90
2018-07-14T16:25:47.991Z,4.10
2018-07-14T16:28:17.099Z,4.40
2018-07-14T16:30:46.084Z,8.13
2018-07-14T16:33:15.126Z,4.33
2018-07-14T16:35:44.246Z,3.33
2018-07-14T16:38:13.164Z,3.83
2018-07-14T16:40:42.175Z,3.80
2018-07-14T16:43:11.329Z,79.00
2018-07-14T16:45:40.357Z,9.83
2018-07-14T16:48:09.365Z,4.30
2018-07-14T16:50:38.358Z,3.97
2018-07-14T16:53:07.328Z,3.80
2018-07-14T16:55:36.365Z,4.10
2018-07-14T16:58:05.367Z,3.80
2018-07-14T17:00:34.481Z,3.53
2018-07-14T17:03:03.493Z,3.67
2018-07-14T17:05:32.533Z,3.77
2018-07-14T17:08:01.578Z,4.50
2018-07-14T17:10:30.553Z,4.57
2018-07-14T17:12:59.627Z,6.30
2018-07-14T17:15:28.604Z,4.73
2018-07-14T17:17:57.644Z,35.13
2018-07-14T17:20:26.749Z,11.07
2018-07-14T17:22:55.775Z,6.70
2018-07-14T17:25:24.891Z,4.33
2018-07-14T17:27:53.897Z,4.23
2018-07-14T17:30:22.933Z,4.40
2018-07-14T17:32:51.879Z,4.00
2018-07-14T17:35:20.861Z,4.27
2018-07-14T17:37:49.942Z,4.10
2018-07-14T17:40:19.000Z,5.77
2018-07-14T17:42:47.980Z,3.87
2018-07-14T17:45:16.993Z,4.10
2018-07-14T17:47:46.053Z,3.80
2018-07-14T17:50:15.088Z,4.00
2018-07-14T17:52:44.116Z,4.20
2018-07-14T17:55:13.269Z,4.80
2018-07-14T17:57:42.426Z,3.87
2018-07-14T18:00:11.508Z,4.03
2018-07-14T18:02:40.520Z,4.13
2018-07-14T18:05:09.575Z,3.93
2018-07-14T18:07:38.552Z,4.43
2018-07-14T18:10:07.749Z,4.60
2018-07-14T18:12:36.769Z,4.20
2018-07-14T18:15:06.064Z,4.20
2018-07-14T18:17:35.158Z,4.03
2018-07-14T18:20:04.310Z,4.57
2018-07-14T18:22:33.452Z,4.50
2018-07-14T18:25:02.519Z,4.63
2018-07-14T18:27:31.536Z,5.07
2018-07-14T18:30:00.554Z,5.70
2018-07-14T18:32:29.617Z,4.23
2018-07-14T18:34:58.650Z,4.80
2018-07-14T18:37:28.037Z,3.80
2018-07-14T18:39:57.040Z,5.07
2018-07-14T18:42:26.190Z,4.90
2018-07-14T18:44:55.369Z,3.90
2018-07-14T18:47:25.104Z,4.27
2018-07-14T18:49:54.076Z,4.80
2018-07-14T18:52:23.161Z,4.70
2018-07-14T18:54:52.049Z,4.87
2018-07-14T18:57:21.076Z,5.30
2018-07-14T18:59:50.085Z,4.27
2018-07-14T19:02:19.114Z,5.80
2018-07-14T19:04:48.382Z,4.10
2018-07-14T19:07:17.358Z,5.20
2018-07-14T19:09:46.340Z,4.70
2018-07-14T19:12:15.697Z,4.50
2018-07-14T19:14:44.754Z,4.20
2018-07-14T19:17:13.792Z,4.80
2018-07-14T19:19:42.918Z,4.50
2018-07-14T19:22:12.018Z,4.30
2018-07-14T19:24:41.010Z,4.40
2018-07-14T19:27:10.101Z,4.70
2018-07-14T19:29:39.180Z,5.50
2018-07-14T19:32:08.444Z,4.00
2018-07-14T19:34:37.498Z,5.70
2018-07-14T19:37:06.467Z,5.37
2018-07-14T19:39:35.519Z,5.10
2018-07-14T19:42:04.560Z,5.20
2018-07-14T19:44:33.647Z,4.93
2018-07-14T19:47:02.689Z,3.97
2018-07-14T19:49:31.732Z,4.80
2018-07-14T19:52:00.711Z,4.10
2018-07-14T19:54:29.676Z,4.30
2018-07-14T19:56:58.784Z,4.17
2018-07-14T19:59:27.797Z,4.83
2018-07-14T20:01:56.848Z,4.80
2018-07-14T20:04:25.819Z,4.20
2018-07-14T20:06:54.860Z,4.77
2018-07-14T20:09:23.953Z,6.43
2018-07-14T20:11:53.012Z,4.30
2018-07-14T20:14:22.042Z,4.53
2018-07-14T20:16:51.069Z,4.27
2018-07-14T20:19:20.061Z,4.60
2018-07-14T20:21:49.036Z,6.63
2018-07-14T20:24:18.388Z,4.50
2018-07-14T20:26:47.444Z,4.57
2018-07-14T20:29:16.492Z,4.30
2018-07-14T20:31:45.524Z,5.07
2018-07-14T20:34:14.675Z,4.40
2018-07-14T20:36:43.699Z,4.63
2018-07-14T20:39:12.663Z,5.60
2018-07-14T20:41:41.686Z,4.67
2018-07-14T20:44:10.652Z,6.07
2018-07-14T20:46:39.693Z,5.73
2018-07-14T20:49:08.676Z,4.70
2018-07-14T20:51:37.762Z,5.23
2018-07-14T20:54:07.016Z,5.07
2018-07-14T20:56:36.055Z,4.93
2018-07-14T20:59:05.040Z,5.13
2018-07-14T21:01:34.028Z,5.70
2018-07-14T21:04:03.020Z,4.90
2018-07-14T21:06:32.042Z,4.90
2018-07-14T21:09:01.020Z,4.50
2018-07-14T21:11:29.981Z,5.00
2018-07-14T21:13:59.073Z,5.13
2018-07-14T21:16:28.104Z,4.40
2018-07-14T21:18:57.077Z,4.17
2018-07-14T21:21:26.275Z,4.47
2018-07-14T21:23:55.128Z,4.30
2018-07-14T21:26:24.176Z,5.03
2018-07-14T21:28:53.148Z,5.73
2018-07-14T21:31:22.194Z,5.03
2018-07-14T21:33:51.156Z,5.00
2018-07-14T21:36:20.300Z,4.30
2018-07-14T21:38:49.321Z,4.50
2018-07-14T21:41:18.403Z,5.50
2018-07-14T21:43:47.511Z,5.00
2018-07-14T21:46:16.492Z,3.90
2018-07-14T21:48:45.533Z,4.57
2018-07-14T21:51:14.538Z,4.57
2018-07-14T21:53:43.588Z,4.73
2018-07-14T21:56:12.686Z,4.87
2018-07-14T21:58:41.727Z,5.03
2018-07-14T22:01:15.857Z,5.40
2018-07-14T22:03:44.893Z,4.33
2018-07-14T22:06:13.918Z,4.37
2018-07-14T22:08:42.978Z,4.43
2018-07-14T22:11:12.028Z,4.73
2018-07-14T22:13:40.992Z,4.43
2018-07-14T22:16:09.977Z,4.07
2018-07-14T22:18:38.936Z,4.60
2018-07-14T22:21:07.995Z,5.23
2018-07-14T22:23:36.968Z,4.60
2018-07-14T22:26:06.165Z,4.50
2018-07-14T22:28:35.140Z,3.93
2018-07-14T22:31:04.241Z,4.83
2018-07-14T22:33:33.330Z,4.43
2018-07-14T22:36:02.365Z,4.27
2018-07-14T22:38:31.357Z,4.67
2018-07-14T22:41:00.371Z,4.10
2018-07-14T22:43:29.412Z,4.00
2018-07-14T22:45:58.388Z,4.43
2018-07-14T22:48:27.481Z,4.70
2018-07-14T22:50:56.452Z,4.10
2018-07-14T22:53:25.405Z,4.47
2018-07-14T22:55:54.397Z,3.93
2018-07-14T22:58:23.405Z,4.50
2018-07-14T23:00:52.390Z,3.80
2018-07-14T23:03:21.349Z,3.90
2018-07-14T23:05:50.386Z,4.33
2018-07-14T23:08:19.408Z,4.07
2018-07-14T23:10:48.389Z,4.80
2018-07-14T23:13:17.416Z,4.60
2018-07-14T23:15:46.445Z,4.23
2018-07-14T23:18:15.408Z,4.00
2018-07-14T23:20:44.435Z,3.73
2018-07-14T23:23:13.465Z,4.00
2018-07-14T23:25:42.501Z,4.53
2018-07-14T23:28:11.599Z,3.50
2018-07-14T23:30:40.686Z,3.90
2018-07-14T23:33:09.732Z,4.20
2018-07-14T23:35:38.742Z,4.30
2018-07-14T23:38:07.850Z,4.43
2018-07-14T23:40:36.836Z,4.53
2018-07-14T23:43:05.817Z,4.03
2018-07-14T23:45:34.865Z,3.83
2018-07-14T23:48:03.950Z,4.30
2018-07-14T23:50:32.926Z,4.00
2018-07-14T23:53:01.944Z,4.37
2018-07-14T23:55:31.020Z,3.80
2018-07-14T23:58:00.020Z,4.80
